Time;durP1;ratioP1;P1;durP2;ratioP2;P2;SDS_P1;SDS_P2;PMS_P1;PMS_P2;Temp;Humidity;BMP_temperature;BMP_pressure;BME280_temperature;BME280_humidity;BME280_pressure;Samples;Min_cycle;Max_cycle;Signal;HPM_P1;HPM_P2
2021/01/16 00:01:40;;;;;;;8.25;5.43;;;;;;;;;;4993918;28;105609;-52
2021/01/16 00:04:06;;;;;;;7.53;4.82;;;;;;;;;;4992079;28;105521;-50
2021/01/16 00:06:32;;;;;;;7.55;5.07;;;;;;;;;;4993273;28;105038;-49
2021/01/16 00:08:57;;;;;;;6.25;4.30;;;;;;;;;;4996939;28;104896;-51
2021/01/16 00:11:23;;;;;;;7.82;5.00;;;;;;;;;;4994671;28;105575;-52
2021/01/16 00:13:48;;;;;;;6.13;4.40;;;;;;;;;;4996482;28;105354;-49
2021/01/16 00:16:13;;;;;;;7.35;4.90;;;;;;;;;;4998953;28;107597;-50
2021/01/16 00:18:39;;;;;;;7.30;5.03;;;;;;;;;;4993579;28;109149;-54
2021/01/16 00:21:04;;;;;;;6.70;4.63;;;;;;;;;;5000632;28;105088;-54
2021/01/16 00:23:30;;;;;;;7.05;4.40;;;;;;;;;;4993569;28;105885;-53
2021/01/16 00:25:56;;;;;;;7.30;4.75;;;;;;;;;;4995441;28;105490;-53
2021/01/16 00:28:26;;;;;;;6.82;4.40;;;;;;;;;;4996013;28;105089;-50
2021/01/16 00:30:52;;;;;;;6.35;4.20;;;;;;;;;;4977594;28;106859;-50
2021/01/16 00:33:19;;;;;;;7.63;4.88;;;;;;;;;;4994855;28;105817;-49
2021/01/16 00:35:44;;;;;;;7.13;4.88;;;;;;;;;;4996044;28;105572;-49
2021/01/16 00:38:10;;;;;;;7.78;5.18;;;;;;;;;;4997175;28;105632;-49
2021/01/16 00:40:35;;;;;;;7.57;5.22;;;;;;;;;;4994714;28;106410;-50
2021/01/16 00:43:08;;;;;;;6.82;4.80;;;;;;;;;;5000959;28;105660;-50
2021/01/16 00:45:33;;;;;;;7.82;5.18;;;;;;;;;;4997488;28;105005;-50
2021/01/16 00:48:08;;;;;;;7.03;4.80;;;;;;;;;;4997009;28;105458;-50
2021/01/16 00:50:33;;;;;;;6.70;4.65;;;;;;;;;;4996950;28;105257;-50
2021/01/16 00:52:59;;;;;;;7.00;4.68;;;;;;;;;;5012574;28;105176;-50
2021/01/16 00:55:32;;;;;;;7.47;4.97;;;;;;;;;;4982116;28;107111;-51
2021/01/16 00:57:58;;;;;;;7.22;5.00;;;;;;;;;;4993667;28;108454;-52
2021/01/16 01:00:28;;;;;;;8.27;5.25;;;;;;;;;;4998535;28;105099;-50
2021/01/16 01:02:56;;;;;;;6.68;4.93;;;;;;;;;;4999520;28;106975;-52
2021/01/16 01:05:22;;;;;;;7.32;4.93;;;;;;;;;;4998529;28;104984;-50
2021/01/16 01:07:48;;;;;;;6.30;4.50;;;;;;;;;;5009805;28;105357;-50
2021/01/16 01:10:16;;;;;;;7.00;5.03;;;;;;;;;;4994259;28;105269;-52
2021/01/16 01:12:41;;;;;;;8.02;5.13;;;;;;;;;;4999014;28;105304;-50
2021/01/16 01:15:08;;;;;;;6.75;4.57;;;;;;;;;;4992890;28;108190;-49
2021/01/16 01:17:33;;;;;;;6.32;4.40;;;;;;;;;;4996036;28;106817;-50
2021/01/16 01:19:58;;;;;;;8.55;5.05;;;;;;;;;;4994480;28;105910;-50
2021/01/16 01:22:30;;;;;;;7.40;5.00;;;;;;;;;;4994529;28;105033;-51
2021/01/16 01:24:59;;;;;;;7.55;5.20;;;;;;;;;;4995128;28;104991;-49
2021/01/16 01:27:24;;;;;;;7.63;4.85;;;;;;;;;;4997775;28;105171;-51
2021/01/16 01:29:50;;;;;;;8.75;5.45;;;;;;;;;;4991790;28;104952;-51
2021/01/16 01:32:15;;;;;;;9.32;5.95;;;;;;;;;;5009230;28;105384;-50
2021/01/16 01:34:41;;;;;;;7.95;5.07;;;;;;;;;;4994425;28;105653;-49
2021/01/16 01:37:06;;;;;;;7.63;5.30;;;;;;;;;;4998183;28;105849;-50
2021/01/16 01:39:32;;;;;;;7.15;4.95;;;;;;;;;;4998538;28;105036;-53
2021/01/16 01:41:57;;;;;;;8.68;5.20;;;;;;;;;;4996863;28;104930;-49
2021/01/16 01:44:22;;;;;;;7.85;5.13;;;;;;;;;;4993770;28;111625;-53
2021/01/16 01:46:48;;;;;;;7.10;4.70;;;;;;;;;;4994587;28;105163;-49
2021/01/16 01:49:13;;;;;;;7.15;4.65;;;;;;;;;;4998402;28;105008;-50
2021/01/16 01:51:39;;;;;;;7.75;5.03;;;;;;;;;;4993722;28;105256;-50
2021/01/16 01:54:04;;;;;;;7.47;5.10;;;;;;;;;;4962459;28;105676;-54
2021/01/16 01:56:30;;;;;;;7.30;5.15;;;;;;;;;;4993004;28;105657;-53
2021/01/16 01:58:57;;;;;;;8.23;5.43;;;;;;;;;;5009286;28;105394;-54
2021/01/16 02:01:26;;;;;;;7.70;4.95;;;;;;;;;;4977485;28;105137;-52
2021/01/16 02:03:52;;;;;;;7.85;5.32;;;;;;;;;;4991708;28;105646;-50
2021/01/16 02:06:17;;;;;;;8.48;5.28;;;;;;;;;;5009828;28;105303;-50
2021/01/16 02:08:43;;;;;;;8.90;5.30;;;;;;;;;;4980378;28;108460;-50
2021/01/16 02:11:10;;;;;;;7.82;4.82;;;;;;;;;;4998935;28;105571;-51
2021/01/16 02:13:36;;;;;;;7.90;4.93;;;;;;;;;;5008046;28;105666;-52
2021/01/16 02:16:10;;;;;;;8.38;5.60;;;;;;;;;;5000048;28;104964;-53
2021/01/16 02:18:41;;;;;;;7.28;4.80;;;;;;;;;;4994684;28;105829;-50
2021/01/16 02:21:07;;;;;;;8.23;5.33;;;;;;;;;;4990951;28;105864;-50
2021/01/16 02:23:34;;;;;;;8.68;5.50;;;;;;;;;;4999668;28;105269;-51
2021/01/16 02:26:05;;;;;;;8.98;5.28;;;;;;;;;;4994176;28;105039;-49
2021/01/16 02:28:31;;;;;;;8.98;5.70;;;;;;;;;;5009001;28;105123;-51
2021/01/16 02:30:57;;;;;;;6.97;4.53;;;;;;;;;;4995433;28;105642;-53
2021/01/16 02:33:22;;;;;;;8.65;5.28;;;;;;;;;;4993624;28;109342;-52
2021/01/16 02:35:57;;;;;;;8.52;5.25;;;;;;;;;;4991196;28;106237;-50
2021/01/16 02:38:27;;;;;;;8.20;5.38;;;;;;;;;;4984785;28;105019;-50
2021/01/16 02:40:56;;;;;;;8.18;5.03;;;;;;;;;;4991981;28;105610;-51
2021/01/16 02:43:31;;;;;;;8.48;5.60;;;;;;;;;;4979043;28;105063;-51
2021/01/16 02:46:06;;;;;;;8.25;5.05;;;;;;;;;;5009317;28;105018;-50
2021/01/16 02:48:51;;;;;;;9.02;5.72;;;;;;;;;;4995742;28;105018;-51
2021/01/16 02:51:25;;;;;;;8.07;5.15;;;;;;;;;;4995112;28;105523;-49
2021/01/16 02:53:51;;;;;;;8.38;5.50;;;;;;;;;;4987098;28;104984;-50
2021/01/16 02:56:16;;;;;;;7.85;4.95;;;;;;;;;;4993707;28;105087;-51
2021/01/16 02:58:42;;;;;;;8.38;5.45;;;;;;;;;;4998597;28;105336;-50
2021/01/16 03:01:07;;;;;;;8.38;5.40;;;;;;;;;;4999300;28;105879;-53
2021/01/16 03:03:33;;;;;;;8.18;5.47;;;;;;;;;;4997555;28;108022;-49
2021/01/16 03:05:58;;;;;;;7.43;5.20;;;;;;;;;;4981842;28;105201;-52
2021/01/16 03:08:24;;;;;;;8.38;5.47;;;;;;;;;;4992664;28;105932;-54
2021/01/16 03:10:49;;;;;;;8.65;5.95;;;;;;;;;;4979044;28;112845;-53
2021/01/16 03:13:15;;;;;;;7.45;5.30;;;;;;;;;;4996263;28;105034;-51
2021/01/16 03:15:40;;;;;;;7.63;5.40;;;;;;;;;;4991716;28;105032;-50
2021/01/16 03:18:05;;;;;;;7.57;4.97;;;;;;;;;;4995285;28;105026;-52
2021/01/16 03:20:31;;;;;;;8.45;5.63;;;;;;;;;;4978475;28;105432;-49
2021/01/16 03:22:58;;;;;;;8.50;5.80;;;;;;;;;;4989574;28;105543;-52
2021/01/16 03:25:24;;;;;;;8.00;5.53;;;;;;;;;;4994698;28;105128;-49
2021/01/16 03:27:51;;;;;;;8.50;5.90;;;;;;;;;;4994862;28;105627;-52
2021/01/16 03:30:17;;;;;;;8.77;5.65;;;;;;;;;;4990727;28;105586;-51
2021/01/16 03:32:43;;;;;;;9.02;5.70;;;;;;;;;;4993272;28;105495;-49
2021/01/16 03:35:10;;;;;;;8.68;5.80;;;;;;;;;;4994611;28;105757;-51
2021/01/16 03:37:35;;;;;;;8.38;5.63;;;;;;;;;;4995891;28;105582;-51
2021/01/16 03:40:01;;;;;;;9.45;6.20;;;;;;;;;;4995128;28;105044;-50
2021/01/16 03:42:26;;;;;;;8.60;5.68;;;;;;;;;;4995456;28;104981;-53
2021/01/16 03:44:52;;;;;;;8.90;6.05;;;;;;;;;;4998253;28;106755;-50
2021/01/16 03:47:17;;;;;;;9.45;6.32;;;;;;;;;;4994903;28;105788;-53
2021/01/16 03:49:43;;;;;;;9.10;6.05;;;;;;;;;;4996361;28;105617;-51
2021/01/16 03:52:08;;;;;;;8.85;5.80;;;;;;;;;;5000002;28;105055;-53
2021/01/16 03:54:34;;;;;;;8.98;6.20;;;;;;;;;;4997011;28;105078;-50
2021/01/16 03:57:00;;;;;;;9.75;6.80;;;;;;;;;;4996952;28;105684;-50
2021/01/16 03:59:25;;;;;;;8.75;5.97;;;;;;;;;;4999383;28;105014;-50
2021/01/16 04:01:50;;;;;;;8.77;6.07;;;;;;;;;;4983919;28;110547;-52
2021/01/16 04:04:16;;;;;;;10.13;6.55;;;;;;;;;;4979839;28;105437;-49
2021/01/16 04:06:41;;;;;;;9.05;6.22;;;;;;;;;;4997562;28;105743;-49
2021/01/16 04:09:07;;;;;;;8.23;5.75;;;;;;;;;;4991908;28;106330;-51
2021/01/16 04:11:33;;;;;;;8.52;5.68;;;;;;;;;;5000037;28;105036;-54
2021/01/16 04:13:58;;;;;;;9.27;5.55;;;;;;;;;;4997364;28;104905;-51
2021/01/16 04:16:25;;;;;;;8.80;6.28;;;;;;;;;;4993715;28;108278;-50
2021/01/16 04:18:50;;;;;;;8.60;5.93;;;;;;;;;;4977391;28;105092;-49
2021/01/16 04:21:16;;;;;;;9.00;6.20;;;;;;;;;;4995576;28;109560;-51
2021/01/16 04:23:41;;;;;;;9.27;6.55;;;;;;;;;;4995935;28;105123;-51
2021/01/16 04:26:06;;;;;;;10.05;7.53;;;;;;;;;;4996738;28;105629;-50
2021/01/16 04:28:32;;;;;;;11.23;7.18;;;;;;;;;;4989947;28;105705;-50
2021/01/16 04:30:57;;;;;;;10.55;7.35;;;;;;;;;;4995402;28;105684;-49
2021/01/16 04:33:23;;;;;;;12.43;7.97;;;;;;;;;;4995366;28;117338;-53
2021/01/16 04:35:48;;;;;;;10.00;7.07;;;;;;;;;;4996436;28;107009;-51
2021/01/16 04:38:14;;;;;;;9.65;6.85;;;;;;;;;;4996214;28;105272;-50
2021/01/16 04:40:39;;;;;;;9.65;6.80;;;;;;;;;;4998027;28;105257;-54
2021/01/16 04:43:05;;;;;;;9.00;6.20;;;;;;;;;;4978068;28;105006;-50
2021/01/16 04:45:31;;;;;;;9.35;6.60;;;;;;;;;;4991701;28;105187;-50
2021/01/16 04:47:59;;;;;;;10.15;6.88;;;;;;;;;;4988603;28;105553;-50
2021/01/16 04:50:26;;;;;;;9.60;6.60;;;;;;;;;;4994014;28;105301;-54
2021/01/16 04:52:52;;;;;;;9.35;6.32;;;;;;;;;;4982529;28;105780;-54
2021/01/16 04:55:17;;;;;;;10.05;6.32;;;;;;;;;;4980122;28;105038;-54
2021/01/16 04:57:43;;;;;;;8.88;6.07;;;;;;;;;;4973910;28;105014;-54
2021/01/16 05:00:12;;;;;;;9.57;6.70;;;;;;;;;;4996176;28;105764;-54
2021/01/16 05:02:41;;;;;;;9.57;6.35;;;;;;;;;;4999098;28;104996;-53
2021/01/16 05:05:10;;;;;;;9.48;6.70;;;;;;;;;;4996228;28;104996;-54
2021/01/16 05:07:36;;;;;;;9.95;6.35;;;;;;;;;;4991994;28;105018;-53
2021/01/16 05:10:06;;;;;;;10.65;7.03;;;;;;;;;;4996677;28;105748;-52
2021/01/16 05:12:31;;;;;;;9.25;6.75;;;;;;;;;;5012632;28;105630;-51
2021/01/16 05:15:04;;;;;;;10.05;6.88;;;;;;;;;;4996453;28;105053;-50
2021/01/16 05:17:30;;;;;;;9.57;6.93;;;;;;;;;;4996656;28;104992;-50
2021/01/16 05:19:56;;;;;;;9.98;6.80;;;;;;;;;;4980302;28;105773;-50
2021/01/16 05:22:21;;;;;;;9.40;6.35;;;;;;;;;;4996046;28;104962;-50
2021/01/16 05:24:47;;;;;;;10.07;6.85;;;;;;;;;;5001784;28;105395;-54
2021/01/16 05:27:13;;;;;;;9.40;6.50;;;;;;;;;;4995614;28;115795;-49
2021/01/16 05:29:38;;;;;;;9.35;6.50;;;;;;;;;;4973046;28;105131;-50
2021/01/16 05:32:04;;;;;;;9.82;6.82;;;;;;;;;;4968312;28;105699;-49
2021/01/16 05:34:31;;;;;;;9.02;6.38;;;;;;;;;;4993294;28;105050;-52
2021/01/16 05:36:56;;;;;;;10.00;7.03;;;;;;;;;;4996108;28;105117;-51
2021/01/16 05:39:26;;;;;;;9.05;6.95;;;;;;;;;;4995178;28;105666;-52
2021/01/16 05:41:55;;;;;;;9.75;6.85;;;;;;;;;;4988974;28;107260;-53
2021/01/16 05:44:20;;;;;;;9.40;6.70;;;;;;;;;;4992848;28;104999;-53
2021/01/16 05:46:46;;;;;;;9.02;6.57;;;;;;;;;;4981807;28;110964;-50
2021/01/16 05:49:15;;;;;;;9.68;6.70;;;;;;;;;;4996027;28;105044;-51
2021/01/16 05:51:42;;;;;;;9.10;6.35;;;;;;;;;;4994910;28;105595;-49
2021/01/16 05:54:08;;;;;;;9.02;6.43;;;;;;;;;;4995138;28;105179;-50
2021/01/16 05:56:33;;;;;;;9.70;6.97;;;;;;;;;;4980021;28;105078;-53
2021/01/16 05:58:59;;;;;;;9.10;6.40;;;;;;;;;;4980371;28;105795;-51
2021/01/16 06:01:25;;;;;;;9.95;6.88;;;;;;;;;;4992470;28;105793;-50
2021/01/16 06:03:51;;;;;;;10.80;8.07;;;;;;;;;;4997086;28;105066;-52
2021/01/16 06:06:17;;;;;;;11.18;8.23;;;;;;;;;;4994941;28;105352;-51
2021/01/16 06:08:48;;;;;;;10.50;8.07;;;;;;;;;;4997310;28;105582;-51
2021/01/16 06:11:14;;;;;;;10.55;7.68;;;;;;;;;;4996428;28;105641;-50
2021/01/16 06:13:39;;;;;;;10.13;7.03;;;;;;;;;;4993587;28;105015;-51
2021/01/16 06:16:05;;;;;;;9.52;6.70;;;;;;;;;;4980829;28;104991;-52
2021/01/16 06:18:37;;;;;;;11.40;7.63;;;;;;;;;;4979096;28;105087;-50
2021/01/16 06:21:03;;;;;;;10.43;7.20;;;;;;;;;;4962006;28;108484;-51
2021/01/16 06:23:29;;;;;;;10.40;7.07;;;;;;;;;;4997253;28;105052;-51
2021/01/16 06:25:55;;;;;;;11.23;7.28;;;;;;;;;;4997390;28;108719;-51
2021/01/16 06:28:25;;;;;;;10.18;7.18;;;;;;;;;;4994445;28;105556;-52
2021/01/16 06:30:57;;;;;;;9.98;6.95;;;;;;;;;;4997659;28;105000;-54
2021/01/16 06:33:24;;;;;;;9.75;7.25;;;;;;;;;;4994948;28;105025;-51
2021/01/16 06:35:55;;;;;;;9.98;6.80;;;;;;;;;;4993174;28;105108;-50
2021/01/16 06:38:31;;;;;;;10.23;7.13;;;;;;;;;;4982286;28;106883;-50
2021/01/16 06:41:10;;;;;;;9.73;6.70;;;;;;;;;;4997782;28;105540;-51
2021/01/16 06:43:37;;;;;;;10.48;7.28;;;;;;;;;;4990036;28;105043;-50
2021/01/16 06:46:13;;;;;;;9.75;6.75;;;;;;;;;;4993870;28;105226;-50
2021/01/16 06:48:42;;;;;;;9.77;6.57;;;;;;;;;;4995824;28;104854;-50
2021/01/16 06:51:09;;;;;;;9.25;6.60;;;;;;;;;;4998891;28;105345;-50
2021/01/16 06:53:35;;;;;;;9.93;7.03;;;;;;;;;;4995522;28;105429;-49
2021/01/16 06:56:08;;;;;;;10.65;7.05;;;;;;;;;;4992363;28;105006;-51
2021/01/16 06:58:38;;;;;;;9.43;6.65;;;;;;;;;;4979493;28;106696;-50
2021/01/16 07:01:05;;;;;;;10.63;7.07;;;;;;;;;;5008618;28;105875;-52
2021/01/16 07:03:31;;;;;;;10.82;7.35;;;;;;;;;;4995781;28;105071;-50
2021/01/16 07:05:56;;;;;;;10.35;6.82;;;;;;;;;;4995561;28;110291;-49
2021/01/16 07:08:23;;;;;;;10.05;7.20;;;;;;;;;;4993423;28;105305;-50
2021/01/16 07:10:48;;;;;;;13.20;9.23;;;;;;;;;;4988059;28;105030;-55
2021/01/16 07:13:14;;;;;;;17.38;11.60;;;;;;;;;;4998079;28;105318;-50
2021/01/16 07:15:39;;;;;;;17.15;11.48;;;;;;;;;;4993041;28;106283;-50
2021/01/16 07:18:05;;;;;;;16.15;11.27;;;;;;;;;;4977271;28;108342;-50
2021/01/16 07:20:30;;;;;;;11.80;8.48;;;;;;;;;;4994198;28;114543;-51
2021/01/16 07:22:55;;;;;;;10.48;7.70;;;;;;;;;;4995973;28;106241;-49
2021/01/16 07:25:21;;;;;;;10.52;7.43;;;;;;;;;;4976826;28;105725;-51
2021/01/16 07:27:47;;;;;;;10.65;7.22;;;;;;;;;;4995642;28;106136;-51
2021/01/16 07:30:13;;;;;;;11.02;7.43;;;;;;;;;;4994473;28;105770;-49
2021/01/16 07:32:43;;;;;;;11.00;8.15;;;;;;;;;;4994182;28;106172;-51
2021/01/16 07:35:21;;;;;;;11.07;7.20;;;;;;;;;;4997288;28;105011;-50
2021/01/16 07:37:48;;;;;;;11.15;8.15;;;;;;;;;;4993080;28;106213;-50
2021/01/16 07:40:32;;;;;;;11.05;8.13;;;;;;;;;;4994136;28;105137;-49
2021/01/16 07:42:59;;;;;;;10.95;7.78;;;;;;;;;;4990050;28;105069;-52
2021/01/16 07:45:24;;;;;;;13.23;9.18;;;;;;;;;;4952411;28;107247;-51
2021/01/16 07:47:51;;;;;;;15.68;10.90;;;;;;;;;;4970818;28;108519;-50
2021/01/16 07:50:27;;;;;;;19.65;13.43;;;;;;;;;;4999130;28;105121;-52
2021/01/16 07:53:00;;;;;;;15.10;11.30;;;;;;;;;;4987237;28;105026;-50
2021/01/16 07:55:34;;;;;;;11.82;8.05;;;;;;;;;;4986699;28;106654;-50
2021/01/16 07:58:20;;;;;;;10.18;6.90;;;;;;;;;;4975154;28;106070;-50
2021/01/16 08:01:23;;;;;;;11.20;8.30;;;;;;;;;;4969773;28;105495;-51
2021/01/16 08:04:07;;;;;;;;;;;;;;;;;;4964589;28;105025;-54
2021/01/16 08:06:34;;;;;;;16.17;13.10;;;;;;;;;;4990619;28;106746;-54
2021/01/16 08:09:21;;;;;;;16.83;13.55;;;;;;;;;;4986802;28;105686;-54
2021/01/16 08:11:50;;;;;;;18.17;14.13;;;;;;;;;;4991101;28;105419;-51
2021/01/16 08:14:21;;;;;;;17.35;14.23;;;;;;;;;;4985727;28;105509;-50
2021/01/16 08:16:54;;;;;;;16.73;13.45;;;;;;;;;;4985351;28;104961;-50
2021/01/16 08:19:27;;;;;;;17.00;14.57;;;;;;;;;;4985690;28;105087;-50
2021/01/16 08:21:54;;;;;;;18.25;14.38;;;;;;;;;;4991375;28;104977;-52
2021/01/16 08:24:20;;;;;;;16.52;13.30;;;;;;;;;;4985114;28;105093;-48
2021/01/16 08:27:01;;;;;;;17.90;14.45;;;;;;;;;;4986895;28;105640;-48
2021/01/16 08:29:28;;;;;;;16.23;13.45;;;;;;;;;;4989618;28;105422;-48
2021/01/16 08:32:07;;;;;;;17.75;13.75;;;;;;;;;;4984953;28;105315;-48
2021/01/16 08:34:57;;;;;;;16.85;13.68;;;;;;;;;;4991102;28;106611;-49
2021/01/16 08:37:36;;;;;;;15.13;12.75;;;;;;;;;;4989830;28;105442;-50
2021/01/16 08:40:07;;;;;;;16.00;13.07;;;;;;;;;;4991232;28;105114;-52
2021/01/16 08:42:34;;;;;;;16.25;13.27;;;;;;;;;;4990083;28;106527;-50
2021/01/16 08:45:00;;;;;;;16.58;12.65;;;;;;;;;;4992990;28;105037;-49
2021/01/16 08:47:26;;;;;;;14.95;12.55;;;;;;;;;;4992479;28;106886;-50
2021/01/16 08:49:52;;;;;;;15.70;12.80;;;;;;;;;;4988730;28;105126;-50
2021/01/16 08:52:33;;;;;;;15.93;12.32;;;;;;;;;;4991323;28;105045;-51
2021/01/16 08:54:59;;;;;;;16.48;13.77;;;;;;;;;;4990031;28;105309;-49
2021/01/16 08:57:28;;;;;;;16.35;13.25;;;;;;;;;;4989288;28;105543;-50
2021/01/16 08:59:54;;;;;;;15.18;12.77;;;;;;;;;;4990110;28;105687;-50
2021/01/16 09:02:19;;;;;;;15.48;12.35;;;;;;;;;;4988610;28;105703;-50
2021/01/16 09:04:45;;;;;;;15.88;12.75;;;;;;;;;;4997284;28;105608;-50
2021/01/16 09:07:13;;;;;;;16.40;13.00;;;;;;;;;;4994479;28;106616;-49
2021/01/16 09:09:38;;;;;;;14.70;12.63;;;;;;;;;;4989183;28;104971;-51
2021/01/16 09:12:08;;;;;;;15.45;12.43;;;;;;;;;;4994148;28;104977;-49
2021/01/16 09:14:35;;;;;;;11.73;7.63;;;;;;;;;;4988268;28;105443;-52
2021/01/16 09:17:19;;;;;;;9.57;6.60;;;;;;;;;;4989457;28;105012;-49
2021/01/16 09:19:51;;;;;;;11.30;7.93;;;;;;;;;;4990975;28;105084;-51
2021/01/16 09:22:27;;;;;;;12.60;9.65;;;;;;;;;;4989877;28;105057;-54
2021/01/16 09:24:54;;;;;;;12.73;9.30;;;;;;;;;;4987608;28;105009;-53
2021/01/16 09:27:27;;;;;;;12.43;9.00;;;;;;;;;;4992784;28;105433;-53
2021/01/16 09:29:53;;;;;;;11.10;7.90;;;;;;;;;;4988853;28;104934;-54
2021/01/16 09:32:31;;;;;;;12.27;8.43;;;;;;;;;;4991206;28;105020;-54
2021/01/16 09:34:57;;;;;;;12.40;7.82;;;;;;;;;;4988575;28;104972;-53
2021/01/16 09:37:26;;;;;;;11.63;8.07;;;;;;;;;;4988810;28;104914;-51
2021/01/16 09:40:11;;;;;;;9.15;6.22;;;;;;;;;;4987340;28;105413;-50
2021/01/16 09:42:45;;;;;;;11.07;7.38;;;;;;;;;;4988594;28;105911;-51
2021/01/16 09:45:11;;;;;;;11.10;7.82;;;;;;;;;;4988962;28;105505;-51
2021/01/16 09:47:38;;;;;;;10.52;7.28;;;;;;;;;;4988383;28;104972;-51
2021/01/16 09:50:03;;;;;;;9.40;6.90;;;;;;;;;;4992978;28;105527;-50
2021/01/16 09:52:29;;;;;;;10.25;6.95;;;;;;;;;;4989834;28;105047;-50
2021/01/16 09:54:54;;;;;;;9.30;6.25;;;;;;;;;;4989287;28;108512;-50
2021/01/16 09:57:36;;;;;;;8.93;5.95;;;;;;;;;;4972478;28;105096;-50
2021/01/16 10:00:11;;;;;;;10.48;6.88;;;;;;;;;;4990342;28;105058;-51
2021/01/16 10:02:42;;;;;;;10.80;7.38;;;;;;;;;;4988742;28;105082;-50
2021/01/16 10:05:09;;;;;;;9.75;6.72;;;;;;;;;;4990916;28;104987;-49
2021/01/16 10:07:40;;;;;;;10.82;7.75;;;;;;;;;;4990988;28;105243;-49
2021/01/16 10:10:19;;;;;;;10.73;7.30;;;;;;;;;;4999382;28;105632;-51
2021/01/16 10:12:45;;;;;;;10.27;7.13;;;;;;;;;;4991500;28;105649;-50
2021/01/16 10:15:16;;;;;;;10.40;6.65;;;;;;;;;;4989071;28;105845;-50
2021/01/16 10:17:50;;;;;;;11.48;7.50;;;;;;;;;;4986464;28;106534;-51
2021/01/16 10:20:16;;;;;;;9.00;6.10;;;;;;;;;;4989142;28;105716;-50
2021/01/16 10:22:52;;;;;;;9.05;5.57;;;;;;;;;;4988821;28;105537;-50
2021/01/16 10:25:18;;;;;;;7.97;5.05;;;;;;;;;;4988025;28;105062;-52
2021/01/16 10:27:53;;;;;;;6.25;4.22;;;;;;;;;;4970787;28;105354;-53
2021/01/16 10:30:29;;;;;;;7.85;5.65;;;;;;;;;;4987877;28;106032;-53
2021/01/16 10:32:55;;;;;;;8.48;6.00;;;;;;;;;;4988282;28;105632;-53
2021/01/16 10:35:22;;;;;;;9.82;6.82;;;;;;;;;;4992310;28;105082;-51
2021/01/16 10:37:48;;;;;;;8.68;6.45;;;;;;;;;;4989072;28;105342;-52
2021/01/16 10:40:14;;;;;;;9.35;6.88;;;;;;;;;;4988612;28;105520;-50
2021/01/16 10:42:40;;;;;;;11.02;8.50;;;;;;;;;;4988818;28;105008;-49
2021/01/16 10:45:06;;;;;;;9.55;7.05;;;;;;;;;;4987899;28;105726;-50
2021/01/16 10:47:34;;;;;;;9.05;6.88;;;;;;;;;;4988478;28;105013;-50
2021/01/16 10:50:10;;;;;;;8.57;6.63;;;;;;;;;;4988576;28;104981;-52
2021/01/16 10:52:35;;;;;;;7.30;5.35;;;;;;;;;;4987573;28;105115;-48
2021/01/16 10:55:03;;;;;;;8.30;5.68;;;;;;;;;;4977984;28;105193;-48
2021/01/16 10:57:58;;;;;;;9.13;6.55;;;;;;;;;;4989396;28;105120;-49
2021/01/16 11:00:24;;;;;;;18.65;10.55;;;;;;;;;;4978512;28;105152;-51
2021/01/16 11:02:50;;;;;;;24.83;14.38;;;;;;;;;;4988301;28;105819;-49
2021/01/16 11:05:15;;;;;;;9.88;6.57;;;;;;;;;;4987917;28;105094;-53
2021/01/16 11:07:41;;;;;;;10.15;6.80;;;;;;;;;;4987501;28;105219;-50
2021/01/16 11:10:08;;;;;;;10.65;7.18;;;;;;;;;;4987756;28;105473;-53
2021/01/16 11:12:33;;;;;;;10.05;6.80;;;;;;;;;;4988785;28;105005;-49
2021/01/16 11:15:01;;;;;;;9.55;6.10;;;;;;;;;;4987989;28;105476;-50
2021/01/16 11:17:45;;;;;;;9.00;6.05;;;;;;;;;;4996090;28;106658;-49
2021/01/16 11:20:20;;;;;;;8.38;5.70;;;;;;;;;;4987398;28;105032;-52
2021/01/16 11:23:10;;;;;;;8.65;5.78;;;;;;;;;;4987725;28;104932;-49
2021/01/16 11:25:46;;;;;;;8.80;5.82;;;;;;;;;;4987349;28;105610;-49
2021/01/16 11:28:12;;;;;;;10.02;6.60;;;;;;;;;;4991364;28;105202;-49
2021/01/16 11:30:39;;;;;;;10.80;6.78;;;;;;;;;;4987607;28;105514;-50
2021/01/16 11:33:25;;;;;;;10.57;7.20;;;;;;;;;;4991900;28;105833;-50
2021/01/16 11:36:15;;;;;;;9.48;6.32;;;;;;;;;;4987302;28;105095;-49
2021/01/16 11:38:48;;;;;;;8.77;6.10;;;;;;;;;;4987417;28;104970;-49
2021/01/16 11:41:14;;;;;;;8.20;5.70;;;;;;;;;;4976477;28;105503;-52
2021/01/16 11:43:40;;;;;;;10.32;6.95;;;;;;;;;;4988698;28;105616;-50
2021/01/16 11:46:15;;;;;;;9.98;6.97;;;;;;;;;;4995477;28;106789;-49
2021/01/16 11:48:41;;;;;;;9.15;5.95;;;;;;;;;;4988714;28;105023;-49
2021/01/16 11:51:19;;;;;;;9.90;6.43;;;;;;;;;;4987461;28;105662;-49
2021/01/16 11:53:49;;;;;;;9.13;6.10;;;;;;;;;;4971648;28;105077;-50
2021/01/16 11:56:15;;;;;;;8.45;5.72;;;;;;;;;;4987456;28;105122;-49
2021/01/16 11:58:45;;;;;;;9.82;6.38;;;;;;;;;;4987194;28;104897;-52
2021/01/16 12:01:13;;;;;;;10.65;6.75;;;;;;;;;;4964650;28;106294;-49
2021/01/16 12:03:39;;;;;;;10.90;7.65;;;;;;;;;;4994120;28;105436;-49
2021/01/16 12:06:17;;;;;;;11.02;7.00;;;;;;;;;;4973372;28;104997;-49
2021/01/16 12:08:46;;;;;;;10.68;7.15;;;;;;;;;;5002068;28;105135;-48
2021/01/16 12:11:13;;;;;;;10.48;6.90;;;;;;;;;;4986690;28;105553;-49
2021/01/16 12:13:57;;;;;;;10.57;6.90;;;;;;;;;;4988730;28;104898;-49
2021/01/16 12:16:22;;;;;;;10.27;7.13;;;;;;;;;;4989548;28;105570;-49
2021/01/16 12:18:47;;;;;;;9.60;6.80;;;;;;;;;;4985622;28;109650;-49
2021/01/16 12:21:13;;;;;;;11.40;7.80;;;;;;;;;;4970532;28;105101;-48
2021/01/16 12:23:47;;;;;;;12.20;7.57;;;;;;;;;;4987658;28;105367;-50
2021/01/16 12:26:15;;;;;;;10.70;6.90;;;;;;;;;;4990137;28;105618;-48
2021/01/16 12:28:47;;;;;;;9.35;5.90;;;;;;;;;;4987126;28;105248;-50
2021/01/16 12:31:23;;;;;;;9.18;6.13;;;;;;;;;;4985759;28;105384;-50
2021/01/16 12:33:49;;;;;;;8.65;5.78;;;;;;;;;;4986789;28;104973;-50
2021/01/16 12:36:14;;;;;;;9.00;6.10;;;;;;;;;;4994823;28;105178;-49
2021/01/16 12:38:40;;;;;;;8.98;6.20;;;;;;;;;;4986113;28;105638;-50
2021/01/16 12:41:05;;;;;;;10.32;7.07;;;;;;;;;;4988195;28;106267;-53
2021/01/16 12:43:31;;;;;;;9.65;6.47;;;;;;;;;;4988798;28;104975;-51
2021/01/16 12:45:56;;;;;;;8.98;6.32;;;;;;;;;;4985576;28;105038;-52
2021/01/16 12:48:28;;;;;;;10.10;6.85;;;;;;;;;;4988663;28;105206;-51
2021/01/16 12:50:55;;;;;;;10.55;6.93;;;;;;;;;;5002237;28;106027;-51
2021/01/16 12:53:21;;;;;;;10.32;6.60;;;;;;;;;;4986683;28;105020;-51
2021/01/16 12:55:46;;;;;;;10.43;6.95;;;;;;;;;;4973029;28;105722;-50
2021/01/16 12:58:12;;;;;;;10.50;6.88;;;;;;;;;;4992610;28;113610;-50
2021/01/16 13:00:39;;;;;;;9.90;6.50;;;;;;;;;;4984897;28;112831;-51
2021/01/16 13:03:04;;;;;;;9.90;6.25;;;;;;;;;;4985234;28;105038;-50
2021/01/16 13:05:34;;;;;;;9.85;6.25;;;;;;;;;;4985324;28;105087;-50
2021/01/16 13:08:01;;;;;;;10.48;6.70;;;;;;;;;;4989574;28;105651;-50
2021/01/16 13:10:27;;;;;;;10.70;7.03;;;;;;;;;;4986530;28;105365;-49
2021/01/16 13:12:53;;;;;;;8.35;6.00;;;;;;;;;;4985568;28;105636;-49
2021/01/16 13:15:18;;;;;;;9.13;6.22;;;;;;;;;;4990745;28;105127;-49
2021/01/16 13:17:45;;;;;;;8.15;5.40;;;;;;;;;;4975451;28;105724;-50
2021/01/16 13:20:11;;;;;;;8.38;5.60;;;;;;;;;;4973372;28;105625;-50
2021/01/16 13:22:37;;;;;;;9.10;6.10;;;;;;;;;;4992018;28;104942;-50
2021/01/16 13:25:07;;;;;;;10.18;6.38;;;;;;;;;;4969782;28;115140;-49
2021/01/16 13:27:34;;;;;;;9.48;6.10;;;;;;;;;;4992674;28;105710;-49
2021/01/16 13:30:18;;;;;;;7.80;5.32;;;;;;;;;;4993032;28;105134;-51
2021/01/16 13:32:45;;;;;;;9.32;5.88;;;;;;;;;;4989044;28;104987;-49
2021/01/16 13:35:11;;;;;;;9.38;5.72;;;;;;;;;;4990507;28;105481;-49
2021/01/16 13:37:36;;;;;;;8.93;5.63;;;;;;;;;;4989114;28;105603;-50
2021/01/16 13:40:20;;;;;;;9.15;5.72;;;;;;;;;;4993583;28;105588;-51
2021/01/16 13:42:48;;;;;;;10.45;7.03;;;;;;;;;;4989653;28;104970;-53
2021/01/16 13:45:17;;;;;;;8.43;5.57;;;;;;;;;;4991205;28;104931;-52
2021/01/16 13:47:42;;;;;;;8.38;5.05;;;;;;;;;;4989794;28;105105;-54
2021/01/16 13:50:13;;;;;;;8.50;5.50;;;;;;;;;;4988518;28;105422;-53
2021/01/16 13:52:41;;;;;;;8.25;5.40;;;;;;;;;;4992274;28;105767;-49
2021/01/16 13:55:12;;;;;;;8.30;5.53;;;;;;;;;;4988946;28;104961;-51
2021/01/16 13:57:37;;;;;;;9.43;6.13;;;;;;;;;;4988678;28;105319;-51
2021/01/16 14:00:03;;;;;;;8.02;5.68;;;;;;;;;;4988742;28;105461;-52
2021/01/16 14:02:37;;;;;;;8.13;5.25;;;;;;;;;;4986198;28;105011;-51
2021/01/16 14:05:03;;;;;;;8.18;5.38;;;;;;;;;;4992252;28;105611;-52
2021/01/16 14:07:30;;;;;;;8.48;5.05;;;;;;;;;;4988878;28;105489;-48
2021/01/16 14:09:56;;;;;;;7.43;4.97;;;;;;;;;;4989322;28;105047;-51
2021/01/16 14:12:21;;;;;;;7.90;5.32;;;;;;;;;;4989099;28;105536;-50
2021/01/16 14:14:51;;;;;;;8.73;5.03;;;;;;;;;;4991032;28;105981;-54
2021/01/16 14:17:22;;;;;;;7.25;4.80;;;;;;;;;;4988800;28;106038;-50
2021/01/16 14:20:06;;;;;;;7.32;4.70;;;;;;;;;;4987794;28;104986;-54
2021/01/16 14:22:40;;;;;;;7.88;6.07;;;;;;;;;;4988873;28;104910;-52
2021/01/16 14:25:07;;;;;;;7.88;5.35;;;;;;;;;;4988519;28;105038;-51
2021/01/16 14:27:43;;;;;;;8.52;5.47;;;;;;;;;;4987934;28;104984;-49
2021/01/16 14:30:09;;;;;;;9.23;6.03;;;;;;;;;;4975898;28;105405;-52
2021/01/16 14:32:35;;;;;;;8.85;6.15;;;;;;;;;;4990019;28;104904;-50